KLGB/LGB METAR and TAF weather

Enter ICAO airport designator
Station Type Date Time Source
KLGB METAR 2020/01/21 17:53 UTC NOAA

KLGB 211753Z 06004KT 10SM SCT014 BKN038 14/11 A3017 RMK AO2 SLP214 60002 T01440111 10144 20117 51012


Station Type Date Time Source
KLGB Decoded METAR 2020/01/21 17:53 UTC NOAA

LONG BEACH AIRPORT, CA, United States (KLGB) 33-49N 118-09W 10M
Jan 21, 2020 - 12:53 PM EST / 2020.01.21 1753 UTC
Wind: from the ENE (060 degrees) at 5 MPH (4 KT):0
Visibility: 10 mile(s):0
Sky conditions: mostly cloudy
Temperature: 57.9 F (14.4 C)
Dew Point: 52.0 F (11.1 C)
Relative Humidity: 80%
Pressure (altimeter): 30.17 in. Hg (1021 hPa)
Pressure tendency: 0.04 inches (1.2 hPa) higher than three hours ago
ob: KLGB 211753Z 06004KT 10SM SCT014 BKN038 14/11 A3017 RMK AO2 SLP214 60002 T01440111 10144 20117 51012
cycle: 18

Station Type Date Time Source
KLGB TAF 2020/01/21 18:33 UTC NOAA

TAF KLGB 211730Z 2118/2218 00000KT P6SM BKN014 OVC035
FM212000 21007KT P6SM SCT030 BKN100
FM220500 VRB03KT P6SM OVC025
FM221300 00000KT P6SM BKN018

Example: see airport list